Time;durP1;ratioP1;P1;durP2;ratioP2;P2;SDS_P1;SDS_P2;PMS_P1;PMS_P2;Temp;Humidity;BMP_temperature;BMP_pressure;BME280_temperature;BME280_humidity;BME280_pressure;Samples;Min_cycle;Max_cycle;Signal;HPM_P1;HPM_P2
2021/12/30 00:02:11;;;;;;;101.95;27.17;;;;;;;10.25;100.00;100952.16;5029141;28;20111;-72
2021/12/30 00:04:37;;;;;;;101.95;25.80;;;;;;;10.18;100.00;100954.44;5014064;28;20075;-73
2021/12/30 00:07:04;;;;;;;106.40;26.13;;;;;;;10.16;100.00;100945.78;5014152;28;20383;-72
2021/12/30 00:09:29;;;;;;;95.90;27.15;;;;;;;10.09;100.00;100943.41;5014448;28;20461;-71
2021/12/30 00:11:56;;;;;;;105.10;27.80;;;;;;;10.06;100.00;100954.09;5011562;28;20037;-73
2021/12/30 00:14:21;;;;;;;106.85;28.13;;;;;;;10.09;100.00;100946.13;5013493;28;20053;-71
2021/12/30 00:16:47;;;;;;;98.97;29.83;;;;;;;10.02;100.00;100955.81;5013257;28;20427;-72
2021/12/30 00:19:13;;;;;;;85.43;27.30;;;;;;;10.07;100.00;100966.63;5013611;28;20132;-72
2021/12/30 00:21:39;;;;;;;121.85;29.05;;;;;;;10.00;100.00;100961.53;5013047;28;20052;-70
2021/12/30 00:24:05;;;;;;;112.00;29.27;;;;;;;9.94;100.00;100960.00;5014466;28;20041;-70
2021/12/30 00:26:32;;;;;;;104.35;27.55;;;;;;;9.96;100.00;100952.34;5012953;28;20342;-71
2021/12/30 00:28:57;;;;;;;110.07;28.58;;;;;;;9.98;100.00;100950.97;5014551;28;20045;-72
2021/12/30 00:31:23;;;;;;;102.30;28.05;;;;;;;9.92;100.00;100951.34;5013244;28;20049;-72
2021/12/30 00:33:49;;;;;;;113.78;30.17;;;;;;;9.92;100.00;100967.69;5012400;28;20422;-71
2021/12/30 00:36:14;;;;;;;96.30;26.25;;;;;;;9.95;100.00;100981.53;5013565;28;20033;-72
2021/12/30 00:38:42;;;;;;;108.72;28.00;;;;;;;10.07;100.00;100981.06;5014394;28;20494;-71
2021/12/30 00:41:09;;;;;;;105.38;27.98;;;;;;;10.13;100.00;100979.06;5016153;28;20332;-71
2021/12/30 00:43:35;;;;;;;96.88;27.02;;;;;;;10.25;100.00;100986.78;5020763;28;20107;-72
2021/12/30 00:46:01;;;;;;;88.22;26.42;;;;;;;10.32;100.00;100981.78;5021804;28;20432;-72
2021/12/30 00:48:26;;;;;;;93.78;26.35;;;;;;;10.38;100.00;100977.84;5026407;28;20044;-71
2021/12/30 00:50:52;;;;;;;110.20;26.13;;;;;;;10.43;100.00;100977.78;5042415;28;20537;-71
2021/12/30 00:53:18;;;;;;;111.28;25.38;;;;;;;10.54;100.00;100979.22;5041630;28;20240;-71
2021/12/30 00:55:44;;;;;;;81.40;22.02;;;;;;;10.55;100.00;100980.00;5005589;28;1026985;-72
2021/12/30 00:58:11;;;;;;;88.15;23.95;;;;;;;10.60;100.00;100969.03;5041759;28;20037;-71
2021/12/30 01:00:40;;;;;;;76.32;24.63;;;;;;;10.62;100.00;100977.72;5042849;28;20104;-73
2021/12/30 01:03:06;;;;;;;102.80;24.83;;;;;;;10.69;100.00;100967.22;5031156;28;20041;-71
2021/12/30 01:05:32;;;;;;;78.22;21.38;;;;;;;10.71;100.00;100967.72;5023665;28;20045;-71
2021/12/30 01:07:58;;;;;;;82.75;21.55;;;;;;;10.77;100.00;100985.63;5018431;28;20678;-71
2021/12/30 01:10:25;;;;;;;86.05;22.23;;;;;;;10.75;100.00;100996.00;5020504;28;20045;-71
2021/12/30 01:12:54;;;;;;;86.15;21.98;;;;;;;10.83;100.00;100995.31;5019300;28;20469;-71
2021/12/30 01:15:32;;;;;;;78.13;21.30;;;;;;;10.84;100.00;100993.41;5019378;28;20391;-72
2021/12/30 01:18:21;;;;;;;75.50;21.00;;;;;;;10.90;100.00;101007.75;5019180;28;20514;-71
2021/12/30 01:20:44;;;;;;;71.20;20.25;;;;;;;10.86;100.00;101005.63;5017318;28;20521;-70
2021/12/30 01:23:09;;;;;;;77.35;19.33;;;;;;;10.90;100.00;101007.75;5016804;28;20041;-71
2021/12/30 01:25:34;;;;;;;79.60;20.05;;;;;;;10.94;100.00;101019.66;5016780;28;20091;-71
2021/12/30 01:28:00;;;;;;;83.47;19.15;;;;;;;10.95;100.00;101022.09;5015094;28;20099;-70
2021/12/30 01:30:25;;;;;;;67.78;16.73;;;;;;;10.98;100.00;101015.25;5014441;28;20194;-71
2021/12/30 01:32:51;;;;;;;78.97;19.77;;;;;;;11.04;100.00;101019.50;5013815;28;20048;-71
2021/12/30 01:35:22;;;;;;;72.22;20.55;;;;;;;11.04;100.00;101020.28;5013742;28;20045;-72
2021/12/30 01:37:51;;;;;;;77.40;18.40;;;;;;;11.06;100.00;101011.81;5016092;28;20223;-71
2021/12/30 01:40:17;;;;;;;65.78;18.30;;;;;;;10.98;100.00;101015.25;5015056;28;20422;-72
2021/12/30 01:42:43;;;;;;;79.15;18.48;;;;;;;11.06;100.00;101020.00;5013540;28;20187;-73
2021/12/30 01:45:10;;;;;;;67.13;17.02;;;;;;;11.07;100.00;101013.41;5014669;28;20172;-71
2021/12/30 01:47:37;;;;;;;66.45;17.92;;;;;;;11.13;100.00;101014.94;5013156;28;20033;-70
2021/12/30 01:50:04;;;;;;;72.95;21.08;;;;;;;11.24;100.00;101026.47;5028796;28;20037;-72
2021/12/30 01:52:29;;;;;;;64.85;20.30;;;;;;;11.22;100.00;101032.22;5033644;28;20048;-72
2021/12/30 01:54:55;;;;;;;72.32;18.17;;;;;;;11.22;100.00;101032.22;5033253;28;20045;-72
2021/12/30 01:57:21;;;;;;;80.05;20.08;;;;;;;11.29;100.00;101042.75;5032999;28;20047;-72
2021/12/30 01:59:46;;;;;;;77.03;19.60;;;;;;;11.35;100.00;101036.09;5033752;28;20128;-70
2021/12/30 02:02:12;;;;;;;82.75;19.50;;;;;;;11.26;100.00;101038.72;5029496;28;20032;-70
2021/12/30 02:04:37;;;;;;;81.68;20.90;;;;;;;11.30;100.00;101028.78;5013032;28;20058;-71
2021/12/30 02:07:04;;;;;;;71.10;19.80;;;;;;;11.37;100.00;101038.50;5013352;28;20095;-72
2021/12/30 02:09:30;;;;;;;67.30;19.02;;;;;;;11.30;100.00;101045.16;5011919;28;20045;-71
2021/12/30 02:11:56;;;;;;;81.22;20.95;;;;;;;11.33;100.00;101050.03;5014197;28;20045;-71
2021/12/30 02:14:21;;;;;;;96.70;21.80;;;;;;;11.38;100.00;101045.59;5012177;28;20045;-72
2021/12/30 02:16:47;;;;;;;85.15;21.90;;;;;;;11.39;100.00;101052.66;5014404;28;20449;-71
2021/12/30 02:19:12;;;;;;;86.45;22.55;;;;;;;11.44;100.00;101060.75;5014197;28;20033;-71
2021/12/30 02:21:38;;;;;;;80.95;24.58;;;;;;;11.38;100.00;101057.31;5014025;28;20119;-71
2021/12/30 02:24:04;;;;;;;86.00;23.77;;;;;;;11.43;100.00;101048.19;5013805;28;20056;-71
2021/12/30 02:26:30;;;;;;;108.88;24.90;;;;;;;11.43;100.00;101059.13;5012276;28;20037;-72
2021/12/30 02:28:55;;;;;;;109.82;24.90;;;;;;;11.40;100.00;101068.72;5014222;28;20510;-72
2021/12/30 02:31:24;;;;;;;116.18;25.48;;;;;;;11.35;100.00;101078.97;5013769;28;20639;-71
2021/12/30 02:33:50;;;;;;;102.28;27.27;;;;;;;11.40;100.00;101081.56;5028313;28;20528;-71
2021/12/30 02:36:18;;;;;;;115.88;27.73;;;;;;;11.40;100.00;101082.38;5033586;28;20048;-73
2021/12/30 02:38:45;;;;;;;127.07;28.38;;;;;;;11.28;100.00;101074.69;5030714;28;20238;-73
2021/12/30 02:41:16;;;;;;;130.85;30.55;;;;;;;11.35;100.00;101074.31;5032371;28;20041;-72
2021/12/30 02:43:42;;;;;;;155.88;33.10;;;;;;;11.43;100.00;101070.03;5031231;28;20291;-73
2021/12/30 02:46:08;;;;;;;129.32;31.73;;;;;;;11.43;100.00;101080.97;5033433;28;20139;-73
2021/12/30 02:48:35;;;;;;;121.20;33.20;;;;;;;11.35;100.00;101073.50;5032780;28;20033;-74
2021/12/30 02:51:03;;;;;;;154.25;33.88;;;;;;;11.27;100.00;101064.88;5033166;28;20154;-71
2021/12/30 02:53:29;;;;;;;182.25;38.45;;;;;;;11.35;100.00;101073.50;5032571;28;20499;-72
2021/12/30 02:55:55;;;;;;;174.30;37.25;;;;;;;11.26;100.00;101078.84;5031314;28;20048;-71
2021/12/30 02:58:22;;;;;;;194.88;41.85;;;;;;;11.28;100.00;101068.41;5031425;28;20139;-72
2021/12/30 03:00:50;;;;;;;171.88;39.75;;;;;;;11.28;100.00;101069.22;5031612;28;20055;-72
2021/12/30 03:03:18;;;;;;;164.45;41.55;;;;;;;11.32;100.00;101064.78;5018637;28;20116;-71
2021/12/30 03:05:43;;;;;;;161.30;40.00;;;;;;;11.23;100.00;101061.16;5012900;28;20139;-72
2021/12/30 03:08:09;;;;;;;170.52;43.90;;;;;;;11.29;100.00;101070.88;5010950;28;20147;-72
2021/12/30 03:10:34;;;;;;;202.00;45.83;;;;;;;11.28;100.00;101065.69;5013331;28;20166;-72
2021/12/30 03:13:06;;;;;;;201.48;46.72;;;;;;;11.29;100.00;101073.59;5013618;28;20049;-72
2021/12/30 03:15:32;;;;;;;173.77;43.33;;;;;;;11.31;100.00;101079.56;5013057;28;20099;-72
2021/12/30 03:17:58;;;;;;;178.45;41.92;;;;;;;11.35;100.00;101073.50;5011906;28;20045;-72
2021/12/30 03:20:23;;;;;;;176.32;42.47;;;;;;;11.40;100.00;101078.84;5013597;28;20037;-71
2021/12/30 03:22:49;;;;;;;155.02;40.67;;;;;;;11.39;100.00;101079.97;5013065;28;20033;-72
2021/12/30 03:25:16;;;;;;;175.45;42.72;;;;;;;11.36;100.00;101092.28;5012941;28;20033;-71
2021/12/30 03:27:42;;;;;;;179.20;42.08;;;;;;;11.34;100.00;101075.41;5013015;28;20080;-72
2021/12/30 03:30:11;;;;;;;210.07;44.30;;;;;;;11.31;100.00;101074.09;5011506;28;20045;-72
2021/12/30 03:32:37;;;;;;;154.75;39.03;;;;;;;11.22;100.00;101070.44;5013591;28;20436;-72
2021/12/30 03:35:03;;;;;;;204.65;44.70;;;;;;;11.39;100.00;101080.75;5014296;28;20451;-73
2021/12/30 03:37:29;;;;;;;214.60;45.00;;;;;;;11.37;100.00;101076.72;5013710;28;20033;-73
2021/12/30 03:39:54;;;;;;;183.77;41.22;;;;;;;11.31;100.00;101085.03;5013511;28;20402;-71
2021/12/30 03:42:20;;;;;;;209.18;45.72;;;;;;;11.38;100.00;101087.34;5013470;28;20045;-72
2021/12/30 03:44:45;;;;;;;192.63;43.13;;;;;;;11.35;100.00;101085.22;5012687;28;20038;-71
2021/12/30 03:47:15;;;;;;;198.68;45.05;;;;;;;11.38;100.00;101075.63;5015894;28;20448;-72
2021/12/30 03:49:44;;;;;;;188.85;41.60;;;;;;;11.43;100.00;101080.97;5026616;28;20041;-71
2021/12/30 03:52:11;;;;;;;179.73;42.17;;;;;;;11.36;100.00;101080.56;5035429;28;20044;-71
2021/12/30 03:54:37;;;;;;;211.18;45.33;;;;;;;11.28;100.00;101082.88;5035882;28;20888;-71
2021/12/30 03:57:02;;;;;;;190.75;39.70;;;;;;;11.31;100.00;101085.03;5035938;28;20065;-71
2021/12/30 03:59:28;;;;;;;205.30;43.10;;;;;;;11.46;100.00;101074.88;5035971;28;20791;-73
2021/12/30 04:01:53;;;;;;;164.38;39.45;;;;;;;11.38;100.00;101081.09;5032990;28;20033;-71
2021/12/30 04:04:19;;;;;;;194.45;41.40;;;;;;;11.36;100.00;101077.84;5016082;28;20666;-71
2021/12/30 04:06:44;;;;;;;204.52;42.97;;;;;;;11.45;100.00;101074.09;5013456;28;20041;-72
2021/12/30 04:09:10;;;;;;;238.70;43.33;;;;;;;11.35;100.00;101076.22;5015175;28;20340;-73
2021/12/30 04:11:37;;;;;;;210.20;41.85;;;;;;;11.29;100.00;101079.06;5014314;28;20470;-71
2021/12/30 04:14:04;;;;;;;219.30;44.05;;;;;;;11.42;100.00;101079.34;5015423;28;20045;-72
2021/12/30 04:16:29;;;;;;;217.90;45.63;;;;;;;11.36;100.00;101080.56;5015321;28;20042;-71
2021/12/30 04:18:55;;;;;;;206.25;45.10;;;;;;;11.29;100.00;101079.06;4997300;28;20651;-72
2021/12/30 04:21:22;;;;;;;200.15;41.92;;;;;;;11.31;100.00;101074.09;5015629;28;20043;-71
2021/12/30 04:23:47;;;;;;;211.25;41.88;;;;;;;11.36;100.00;101075.09;5013516;28;20060;-72
2021/12/30 04:26:13;;;;;;;198.30;42.42;;;;;;;11.37;100.00;101077.53;5015665;28;20042;-71
2021/12/30 04:28:39;;;;;;;199.00;43.53;;;;;;;11.37;100.00;101076.72;4997218;28;20041;-71
2021/12/30 04:31:05;;;;;;;183.75;41.05;;;;;;;11.26;100.00;101082.38;5013978;28;20060;-73
2021/12/30 04:33:31;;;;;;;177.57;43.35;;;;;;;11.45;100.00;101084.22;5015860;28;20382;-72
2021/12/30 04:35:57;;;;;;;222.38;45.50;;;;;;;11.34;100.00;101083.59;5015864;28;20053;-73
2021/12/30 04:38:24;;;;;;;209.85;44.80;;;;;;;11.41;100.00;101083.22;5013236;28;20159;-72
2021/12/30 04:40:50;;;;;;;181.38;42.78;;;;;;;11.46;100.00;101072.16;5015114;28;20041;-71
2021/12/30 04:43:17;;;;;;;212.65;44.15;;;;;;;11.47;100.00;101074.59;5015472;28;20038;-72
2021/12/30 04:45:43;;;;;;;181.73;41.67;;;;;;;11.55;100.00;101073.09;5015884;28;20953;-72
2021/12/30 04:48:09;;;;;;;170.75;41.20;;;;;;;11.53;100.00;101076.13;5014132;28;20037;-72
2021/12/30 04:50:34;;;;;;;161.40;37.72;;;;;;;11.62;100.00;101084.41;5032682;28;20894;-71
2021/12/30 04:53:00;;;;;;;128.93;33.47;;;;;;;11.72;100.00;101086.94;5035008;28;20044;-72
2021/12/30 04:55:25;;;;;;;154.27;33.92;;;;;;;11.74;100.00;101081.97;5035032;28;20543;-72
2021/12/30 04:57:51;;;;;;;144.50;31.20;;;;;;;11.81;100.00;101086.19;5032324;28;20033;-72
2021/12/30 05:00:17;;;;;;;142.70;30.88;;;;;;;11.85;100.00;101087.22;5016566;28;20378;-73
2021/12/30 05:03:07;;;;;;;141.70;28.92;;;;;;;11.79;100.00;101083.78;5023110;28;20037;-71
2021/12/30 05:05:36;;;;;;;118.65;27.80;;;;;;;11.93;100.00;101072.88;5013106;28;20558;-72
2021/12/30 05:08:02;;;;;;;116.22;27.13;;;;;;;11.73;100.00;101079.53;5014991;28;20041;-71
2021/12/30 05:10:28;;;;;;;126.28;27.30;;;;;;;11.80;100.00;101074.47;5012486;28;20211;-72
2021/12/30 05:12:53;;;;;;;134.35;28.65;;;;;;;11.81;100.00;101069.81;5012560;28;20041;-71
2021/12/30 05:15:19;;;;;;;133.98;29.85;;;;;;;11.82;100.00;101072.25;5012686;28;20052;-72
2021/12/30 05:17:44;;;;;;;104.40;25.58;;;;;;;11.82;100.00;101066.78;5015073;28;20040;-73
2021/12/30 05:20:12;;;;;;;106.07;24.20;;;;;;;11.78;100.00;101074.78;4997096;28;20052;-72
2021/12/30 05:22:38;;;;;;;114.30;24.55;;;;;;;11.78;100.00;101071.25;5015378;28;20049;-71
2021/12/30 05:25:04;;;;;;;107.07;24.45;;;;;;;11.74;100.00;101081.97;5013194;28;20038;-72
2021/12/30 05:27:30;;;;;;;96.05;21.85;;;;;;;11.76;100.00;101071.53;5015968;28;20167;-73
2021/12/30 05:29:55;;;;;;;109.47;24.33;;;;;;;11.71;100.00;101071.63;5017805;28;20049;-71
2021/12/30 05:32:21;;;;;;;102.80;24.92;;;;;;;11.82;100.00;101074.19;5025112;28;20052;-71
2021/12/30 05:34:46;;;;;;;90.70;22.45;;;;;;;11.73;100.00;101069.44;5022506;28;20033;-73
2021/12/30 05:37:11;;;;;;;111.38;24.58;;;;;;;11.82;100.00;101079.63;5025736;28;20185;-72
2021/12/30 05:39:41;;;;;;;105.28;24.05;;;;;;;11.85;100.00;101079.84;5024950;28;20048;-72
2021/12/30 05:42:06;;;;;;;83.20;19.23;;;;;;;11.85;100.00;101076.28;5021942;28;20049;-72
2021/12/30 05:44:32;;;;;;;74.38;18.70;;;;;;;11.85;100.00;101084.50;5023750;28;20152;-72
2021/12/30 05:46:57;;;;;;;58.95;16.33;;;;;;;11.86;100.00;101083.41;5022423;28;20325;-72
2021/12/30 05:49:23;;;;;;;56.15;14.40;;;;;;;11.88;100.00;101081.97;5024583;28;20045;-72
2021/12/30 05:51:48;;;;;;;53.63;13.43;;;;;;;11.98;100.00;101091.88;5025185;28;20053;-72
2021/12/30 05:54:14;;;;;;;65.82;15.40;;;;;;;11.92;100.00;101101.28;5041934;28;20098;-73
2021/12/30 05:56:39;;;;;;;60.45;15.43;;;;;;;12.00;100.00;101100.56;5043472;28;20028;-71
2021/12/30 05:59:05;;;;;;;49.60;14.25;;;;;;;12.10;100.00;101105.84;5043793;28;20037;-73
2021/12/30 06:01:30;;;;;;;59.42;15.35;;;;;;;12.04;100.00;101112.50;5042623;28;20037;-72
2021/12/30 06:03:56;;;;;;;63.38;16.20;;;;;;;11.96;100.00;101105.06;5022405;28;20134;-73
2021/12/30 06:06:22;;;;;;;44.55;13.18;;;;;;;12.00;100.00;101112.31;5019817;28;20060;-72
2021/12/30 06:08:49;;;;;;;49.70;12.75;;;;;;;12.03;100.00;101099.16;5018408;28;20532;-73
2021/12/30 06:11:14;;;;;;;39.85;12.75;;;;;;;12.04;100.00;101096.09;5016385;28;20037;-72
2021/12/30 06:13:40;;;;;;;49.00;13.70;;;;;;;11.96;100.00;101103.13;5014347;28;20403;-72
2021/12/30 06:16:05;;;;;;;43.92;11.90;;;;;;;12.06;100.00;101099.34;5014454;28;20398;-72
2021/12/30 06:18:31;;;;;;;35.60;11.43;;;;;;;12.12;100.00;101095.38;5013501;28;20038;-72
2021/12/30 06:20:56;;;;;;;43.67;11.60;;;;;;;12.11;100.00;101096.50;5013707;28;20482;-72
2021/12/30 06:23:21;;;;;;;32.35;9.95;;;;;;;12.14;100.00;101086.88;5013274;28;20348;-72
2021/12/30 06:25:47;;;;;;;32.45;10.10;;;;;;;12.20;100.00;101094.66;5011121;28;20080;-72
2021/12/30 06:28:12;;;;;;;47.72;11.93;;;;;;;12.21;100.00;101079.06;5013909;28;20056;-72
2021/12/30 06:30:38;;;;;;;42.63;13.25;;;;;;;12.19;100.00;101084.03;5011963;28;20049;-72
2021/12/30 06:33:03;;;;;;;57.17;17.48;;;;;;;12.24;100.00;101083.91;5013701;28;20459;-72
2021/12/30 06:35:32;;;;;;;55.35;19.30;;;;;;;12.24;100.00;101081.97;5013631;28;20045;-74
2021/12/30 06:37:59;;;;;;;75.10;22.60;;;;;;;12.38;100.00;101083.88;5013435;28;20583;-72
2021/12/30 06:40:24;;;;;;;82.80;23.70;;;;;;;12.43;100.00;101081.00;5010802;28;20364;-72
2021/12/30 06:42:49;;;;;;;87.50;26.05;;;;;;;12.42;100.00;101096.63;5012959;28;20076;-72
2021/12/30 06:45:15;;;;;;;80.38;26.55;;;;;;;12.42;100.00;101096.63;5012807;28;20026;-73
2021/12/30 06:47:44;;;;;;;79.97;25.30;;;;;;;12.50;100.00;101111.47;5012721;28;20443;-72
2021/12/30 06:50:11;;;;;;;94.80;29.38;;;;;;;12.54;100.00;101112.47;5026716;28;20489;-73
2021/12/30 06:52:37;;;;;;;84.68;26.23;;;;;;;12.56;100.00;101118.44;5033419;28;20048;-72
2021/12/30 06:55:02;;;;;;;78.05;25.38;;;;;;;12.64;100.00;101125.91;5031853;28;20268;-71
2021/12/30 06:57:28;;;;;;;64.05;25.35;;;;;;;12.63;100.00;101118.00;5032025;28;20482;-71
2021/12/30 06:59:54;;;;;;;56.72;22.75;;;;;;;12.62;100.00;101124.59;5033538;28;20700;-72
2021/12/30 07:02:19;;;;;;;57.10;24.25;;;;;;;12.69;100.00;101117.56;5026453;28;20029;-72
2021/12/30 07:04:45;;;;;;;50.45;23.17;;;;;;;12.66;100.00;101134.59;5012568;28;20505;-75
2021/12/30 07:07:10;;;;;;;55.75;24.88;;;;;;;12.69;100.00;101128.53;5013146;28;20379;-72
2021/12/30 07:09:36;;;;;;;54.25;25.30;;;;;;;12.72;100.00;101137.22;5013130;28;20037;-73
2021/12/30 07:12:01;;;;;;;61.30;26.52;;;;;;;12.69;100.00;101144.94;5013543;28;20474;-72
2021/12/30 07:14:28;;;;;;;61.95;26.58;;;;;;;12.66;100.00;101145.56;5012696;28;20475;-72
2021/12/30 07:16:54;;;;;;;55.08;25.63;;;;;;;12.64;100.00;101152.44;5010863;28;20131;-71
2021/12/30 07:19:21;;;;;;;64.68;27.75;;;;;;;12.61;100.00;101148.41;5011593;28;20045;-71
2021/12/30 07:21:46;;;;;;;61.63;26.90;;;;;;;12.51;100.00;101147.81;5017160;28;20059;-71
2021/12/30 07:24:12;;;;;;;66.47;28.10;;;;;;;12.63;100.00;101151.66;5019577;28;20537;-72
2021/12/30 07:26:37;;;;;;;60.53;27.02;;;;;;;12.60;100.00;101162.41;5019426;28;20045;-73
2021/12/30 07:29:04;;;;;;;60.47;26.05;;;;;;;12.59;100.00;101164.31;5032755;28;20033;-74
2021/12/30 07:31:30;;;;;;;65.38;25.10;;;;;;;12.60;100.00;101171.41;5033548;28;20041;-72
2021/12/30 07:33:56;;;;;;;65.88;24.67;;;;;;;12.63;100.00;101172.72;5017875;28;20434;-74
2021/12/30 07:36:21;;;;;;;61.75;25.55;;;;;;;12.60;100.00;101171.41;5019188;28;20038;-74
2021/12/30 07:38:48;;;;;;;55.53;21.77;;;;;;;12.65;100.00;101175.94;5021618;28;20449;-73
2021/12/30 07:41:14;;;;;;;53.85;22.25;;;;;;;12.63;100.00;101170.81;5015701;28;20136;-72
2021/12/30 07:43:40;;;;;;;51.40;20.58;;;;;;;12.71;100.00;101165.69;5015758;28;20111;-73
2021/12/30 07:46:07;;;;;;;50.60;22.80;;;;;;;12.72;100.00;101170.06;5021912;28;20037;-74
2021/12/30 07:48:33;;;;;;;58.50;23.67;;;;;;;12.75;100.00;101174.91;5015544;28;20041;-73
2021/12/30 07:50:59;;;;;;;53.35;21.45;;;;;;;12.72;100.00;101170.06;5017022;28;20195;-71
2021/12/30 07:53:24;;;;;;;61.90;23.10;;;;;;;12.79;100.00;101186.84;5029768;28;20083;-73
2021/12/30 07:55:50;;;;;;;58.28;23.25;;;;;;;12.75;100.00;101174.91;5035621;28;20123;-72
2021/12/30 07:58:16;;;;;;;54.97;22.60;;;;;;;12.69;100.00;101183.25;5036399;28;20056;-72
2021/12/30 08:00:41;;;;;;;48.63;21.25;;;;;;;12.76;100.00;101192.94;5029099;28;20897;-72
2021/12/30 08:03:07;;;;;;;50.63;20.45;;;;;;;12.76;100.00;101198.41;5025347;28;20045;-72
2021/12/30 08:05:32;;;;;;;54.22;19.77;;;;;;;12.84;100.00;101197.69;5053106;28;20041;-72
2021/12/30 08:07:58;;;;;;;40.55;17.02;;;;;;;12.87;100.00;101199.81;5036285;28;20110;-72
2021/12/30 08:10:24;;;;;;;37.78;16.08;;;;;;;12.92;100.00;101199.69;5032299;28;20633;-73
2021/12/30 08:12:50;;;;;;;36.72;14.98;;;;;;;12.95;100.00;101201.81;5030558;28;20128;-72
2021/12/30 08:15:17;;;;;;;35.03;14.27;;;;;;;12.93;100.00;101208.69;5034459;28;20155;-72
2021/12/30 08:17:44;;;;;;;26.30;12.13;;;;;;;13.07;100.00;101204.78;5035613;28;20147;-71
2021/12/30 08:20:11;;;;;;;26.35;11.25;;;;;;;12.99;100.00;101213.72;5033380;28;20043;-71
2021/12/30 08:22:37;;;;;;;24.55;11.70;;;;;;;13.02;100.00;101224.06;5047090;28;20040;-72
2021/12/30 08:25:04;;;;;;;24.45;11.52;;;;;;;13.10;100.00;101220.59;5040527;28;20068;-72
2021/12/30 08:27:29;;;;;;;23.30;10.65;;;;;;;13.11;100.00;101226.88;5052222;28;20044;-72
2021/12/30 08:29:54;;;;;;;17.55;8.50;;;;;;;13.21;100.00;101220.34;5040334;28;20358;-72
2021/12/30 08:32:20;;;;;;;14.05;8.63;;;;;;;13.17;100.00;101216.59;5044756;28;20243;-73
2021/12/30 08:34:46;;;;;;;14.95;8.10;;;;;;;13.25;100.00;101215.84;5047531;28;20028;-72
2021/12/30 08:37:12;;;;;;;15.90;8.25;;;;;;;13.31;100.00;101220.09;5038864;28;20037;-73
2021/12/30 08:39:40;;;;;;;15.30;7.78;;;;;;;13.31;100.00;101217.38;5022404;28;20408;-73
2021/12/30 08:42:17;;;;;;;13.00;7.28;;;;;;;13.31;100.00;101215.44;5048063;28;20122;-72
2021/12/30 08:44:42;;;;;;;11.52;6.80;;;;;;;13.35;100.00;101221.09;5047454;28;20044;-72
2021/12/30 08:47:08;;;;;;;14.05;6.82;;;;;;;13.34;100.00;101230.44;5039289;28;20028;-72
2021/12/30 08:49:33;;;;;;;11.50;5.97;;;;;;;13.44;100.00;101218.41;5044352;28;20074;-72
2021/12/30 08:51:59;;;;;;;10.95;5.70;;;;;;;13.39;100.00;101219.34;5047843;28;20037;-71
2021/12/30 08:54:24;;;;;;;11.30;5.57;;;;;;;13.45;100.00;101220.84;5042235;28;20468;-72
2021/12/30 08:56:50;;;;;;;14.35;7.68;;;;;;;13.41;100.00;101233.56;5031103;28;20033;-74
2021/12/30 08:59:15;;;;;;;11.93;5.53;;;;;;;13.37;100.00;101238.03;5014929;28;20044;-74
2021/12/30 09:01:40;;;;;;;13.07;5.20;;;;;;;13.46;100.00;101233.41;5035387;28;20043;-72
2021/12/30 09:04:06;;;;;;;9.98;5.70;;;;;;;13.51;100.00;101241.50;5027805;28;20604;-71
2021/12/30 09:06:31;;;;;;;11.52;7.07;;;;;;;13.47;100.00;101237.78;5014627;28;20275;-73
2021/12/30 09:08:57;;;;;;;14.43;6.55;;;;;;;13.47;100.00;101235.03;5003556;28;20266;-71
2021/12/30 09:11:22;;;;;;;14.68;6.07;;;;;;;13.60;100.00;101249.75;5051985;28;20052;-72
2021/12/30 09:13:47;;;;;;;10.65;6.60;;;;;;;13.62;100.00;101249.47;5038471;28;20492;-72
2021/12/30 09:16:13;;;;;;;10.27;5.68;;;;;;;13.67;100.00;101249.31;5024985;28;20037;-72
2021/12/30 09:18:40;;;;;;;10.82;6.15;;;;;;;13.69;100.00;101247.06;5024945;28;20037;-71
2021/12/30 09:21:05;;;;;;;12.98;5.22;;;;;;;13.55;100.00;101247.97;5019961;28;20748;-72
2021/12/30 09:23:31;;;;;;;10.35;5.32;;;;;;;13.58;100.00;101252.84;5023261;28;20033;-72
2021/12/30 09:25:56;;;;;;;11.60;5.45;;;;;;;13.53;100.00;101249.41;5048062;28;20048;-72
2021/12/30 09:28:24;;;;;;;11.30;5.50;;;;;;;13.53;100.00;101252.97;5042060;28;20382;-73
2021/12/30 09:30:50;;;;;;;9.60;5.25;;;;;;;13.57;100.00;101255.88;5038781;28;20443;-73
2021/12/30 09:33:15;;;;;;;8.98;5.05;;;;;;;13.54;100.00;101257.31;5019066;28;20047;-72
2021/12/30 09:35:47;;;;;;;12.57;4.68;;;;;;;13.67;100.00;101263.00;5018290;28;20033;-74
2021/12/30 09:38:13;;;;;;;11.82;4.88;;;;;;;13.65;100.00;101265.28;5044840;28;20404;-72
2021/12/30 09:40:38;;;;;;;9.32;4.68;;;;;;;13.72;100.00;101266.44;5045079;28;20044;-73
2021/12/30 09:43:04;;;;;;;11.93;5.20;;;;;;;13.75;100.00;101274.03;5027702;28;20210;-72
2021/12/30 09:45:36;;;;;;;10.07;4.70;;;;;;;13.76;100.00;101269.38;5041233;28;20040;-72
2021/12/30 09:48:05;;;;;;;9.57;4.38;;;;;;;13.71;100.00;101275.78;5048714;28;20294;-72
2021/12/30 09:50:35;;;;;;;10.55;4.47;;;;;;;13.81;100.00;101286.47;5015969;28;20742;-73
2021/12/30 09:53:01;;;;;;;11.52;5.03;;;;;;;13.82;100.00;101292.78;5024093;28;20048;-73
2021/12/30 09:55:27;;;;;;;10.48;4.50;;;;;;;13.84;100.00;101293.25;5040281;28;20114;-73
2021/12/30 09:57:53;;;;;;;9.68;4.10;;;;;;;13.91;100.00;101290.88;5036724;28;20076;-72
2021/12/30 10:00:20;;;;;;;8.80;4.22;;;;;;;13.97;100.00;101286.88;5050631;28;20040;-73
2021/12/30 10:02:46;;;;;;;14.95;4.55;;;;;;;14.03;100.00;101285.63;5037320;28;20096;-71
2021/12/30 10:05:14;;;;;;;14.52;5.47;;;;;;;14.19;100.00;101282.44;5032465;28;20047;-72
2021/12/30 10:07:41;;;;;;;13.35;4.53;;;;;;;14.20;100.00;101286.81;5048465;28;20553;-72
2021/12/30 10:10:30;;;;;;;14.23;4.57;;;;;;;14.29;100.00;101279.44;5047110;28;20072;-71
2021/12/30 10:12:56;;;;;;;7.25;4.15;;;;;;;14.36;100.00;101276.22;5038760;28;20056;-72
2021/12/30 10:15:25;;;;;;;16.55;5.05;;;;;;;14.41;100.00;101278.81;5043124;28;20288;-72
2021/12/30 10:18:00;;;;;;;10.95;4.47;;;;;;;14.52;100.00;101284.84;5046730;28;20565;-72
2021/12/30 10:20:29;;;;;;;11.18;5.28;;;;;;;14.55;100.00;101278.72;5049014;28;20493;-71
2021/12/30 10:23:06;;;;;;;10.50;5.50;;;;;;;14.65;100.00;101272.91;5049000;28;20044;-72
2021/12/30 10:25:35;;;;;;;16.30;5.90;;;;;;;14.58;100.00;101261.63;5043995;28;20086;-71
2021/12/30 10:28:28;;;;;;;14.50;6.97;;;;;;;14.57;100.00;101270.97;5040501;28;20055;-72
2021/12/30 10:31:11;;;;;;;13.52;6.10;;;;;;;14.70;100.00;101281.00;5033798;28;20158;-71
2021/12/30 10:33:57;;;;;;;15.10;6.63;;;;;;;14.53;100.00;101297.44;5043566;28;20111;-72
2021/12/30 10:36:25;;;;;;;20.17;7.57;;;;;;;14.32;100.00;101292.50;5042595;28;20155;-71
2021/12/30 10:38:52;;;;;;;19.00;7.88;;;;;;;14.30;100.00;101307.66;5033222;28;20032;-72
2021/12/30 10:41:22;;;;;;;13.35;8.00;;;;;;;14.23;100.00;101302.66;5041060;28;20040;-71
2021/12/30 10:43:52;;;;;;;21.67;9.07;;;;;;;14.16;100.00;101314.06;5043343;28;20045;-73
2021/12/30 10:46:26;;;;;;;17.95;8.35;;;;;;;14.20;100.00;101314.25;5036324;28;20037;-71
2021/12/30 10:48:56;;;;;;;21.25;8.27;;;;;;;14.19;100.00;101305.19;5038853;28;20041;-72
2021/12/30 10:51:41;;;;;;;17.13;7.93;;;;;;;14.16;100.00;101311.31;5040576;28;20056;-74
2021/12/30 10:54:13;;;;;;;18.33;7.60;;;;;;;14.10;100.00;101317.25;5043126;28;20416;-71
2021/12/30 10:56:41;;;;;;;19.20;7.45;;;;;;;14.17;100.00;101323.13;5030219;28;20110;-71
2021/12/30 10:59:43;;;;;;;19.63;6.55;;;;;;;14.16;100.00;101316.78;5033827;28;20138;-72
2021/12/30 11:02:28;;;;;;;19.73;7.70;;;;;;;14.19;100.00;101315.34;5009501;28;20099;-71